createdAt,value
2018-10-16T00:00:49.986Z,15.37
2018-10-16T00:03:18.312Z,14.77
2018-10-16T00:05:46.559Z,14.75
2018-10-16T00:08:14.838Z,12.65
2018-10-16T00:10:45.915Z,15.28
2018-10-16T00:13:14.367Z,17.97
2018-10-16T00:15:42.672Z,22.05
2018-10-16T00:18:12.091Z,17.65
2018-10-16T00:20:40.962Z,14.78
2018-10-16T00:23:10.140Z,16.15
2018-10-16T00:25:38.446Z,15.40
2018-10-16T00:28:06.970Z,18.12
2018-10-16T00:30:35.235Z,15.53
2018-10-16T00:33:03.582Z,14.55
2018-10-16T00:35:31.890Z,13.33
2018-10-16T00:38:00.222Z,15.77
2018-10-16T00:40:28.511Z,18.30
2018-10-16T00:42:56.791Z,18.00
2018-10-16T00:45:25.091Z,14.23
2018-10-16T00:47:53.366Z,21.50
2018-10-16T00:50:21.698Z,16.17
2018-10-16T00:52:49.986Z,13.45
2018-10-16T00:55:18.293Z,20.48
2018-10-16T00:57:46.591Z,17.20
2018-10-16T01:00:14.876Z,17.07
2018-10-16T01:02:43.906Z,17.23
2018-10-16T01:05:13.004Z,16.42
2018-10-16T01:07:41.822Z,17.37
2018-10-16T01:10:11.093Z,16.90
2018-10-16T01:12:40.003Z,17.23
2018-10-16T01:15:09.523Z,16.45
2018-10-16T01:17:38.286Z,18.42
2018-10-16T01:20:08.699Z,18.57
2018-10-16T01:22:37.211Z,15.70
2018-10-16T01:25:06.503Z,17.40
2018-10-16T01:27:34.819Z,20.08
2018-10-16T01:30:03.143Z,21.33
2018-10-16T01:32:31.426Z,14.40
2018-10-16T01:34:59.777Z,17.47
2018-10-16T01:37:28.098Z,17.02
2018-10-16T01:39:56.366Z,14.87
2018-10-16T01:42:24.679Z,15.50
2018-10-16T01:44:52.983Z,15.55
2018-10-16T01:47:21.488Z,14.53
2018-10-16T01:49:49.799Z,14.77
2018-10-16T01:52:18.095Z,19.43
2018-10-16T01:54:46.331Z,19.10
2018-10-16T01:57:14.634Z,14.67
2018-10-16T01:59:42.954Z,17.37
2018-10-16T02:02:11.324Z,14.53
2018-10-16T02:04:39.651Z,15.25
2018-10-16T02:07:07.931Z,17.65
2018-10-16T02:09:36.223Z,17.67
2018-10-16T02:12:04.522Z,17.37
2018-10-16T02:14:32.901Z,15.63
2018-10-16T02:17:01.236Z,15.30
2018-10-16T02:19:29.492Z,18.80
2018-10-16T02:21:57.762Z,16.73
2018-10-16T02:24:26.043Z,18.80
2018-10-16T02:26:54.330Z,16.07
2018-10-16T02:29:22.611Z,17.23
2018-10-16T02:31:50.891Z,20.60
2018-10-16T02:34:22.071Z,14.05
2018-10-16T02:36:50.355Z,17.55
2018-10-16T02:39:18.681Z,17.75
2018-10-16T02:41:46.967Z,15.43
2018-10-16T02:44:15.250Z,15.70
2018-10-16T02:46:44.760Z,17.48
2018-10-16T02:49:13.119Z,18.65
2018-10-16T02:51:41.422Z,16.73
2018-10-16T02:54:09.705Z,15.88
2018-10-16T02:56:37.999Z,14.60
2018-10-16T02:59:06.296Z,22.10
2018-10-16T03:01:34.555Z,16.30
2018-10-16T03:04:02.847Z,18.10
2018-10-16T03:06:31.122Z,16.48
2018-10-16T03:08:59.494Z,15.13
2018-10-16T03:11:27.809Z,19.00
2018-10-16T03:13:56.087Z,15.70
2018-10-16T03:16:24.435Z,15.45
2018-10-16T03:18:52.722Z,17.95
2018-10-16T03:21:21.002Z,16.00
2018-10-16T03:23:49.280Z,15.65
2018-10-16T03:26:17.562Z,16.73
2018-10-16T03:28:45.835Z,16.95
2018-10-16T03:31:14.125Z,19.83
2018-10-16T03:33:42.415Z,18.47
2018-10-16T03:36:10.642Z,16.57
2018-10-16T03:38:39.007Z,18.10
2018-10-16T03:41:07.283Z,18.17
2018-10-16T03:43:37.311Z,17.37
2018-10-16T03:46:05.760Z,19.07
2018-10-16T03:48:34.055Z,17.57
2018-10-16T03:51:02.355Z,17.80
2018-10-16T03:53:30.648Z,17.23
2018-10-16T03:55:59.115Z,18.65
2018-10-16T03:58:27.435Z,21.35
2018-10-16T04:00:55.731Z,19.70
2018-10-16T04:03:24.011Z,21.85
2018-10-16T04:05:52.298Z,19.50
2018-10-16T04:08:20.588Z,17.87
2018-10-16T04:10:48.884Z,20.90
2018-10-16T04:13:17.171Z,18.47
2018-10-16T04:15:45.438Z,17.73
2018-10-16T04:18:13.711Z,16.73
2018-10-16T04:20:42.031Z,20.27
2018-10-16T04:23:10.303Z,17.20
2018-10-16T04:25:38.615Z,16.73
2018-10-16T04:28:06.895Z,18.65
2018-10-16T04:30:35.226Z,18.77
2018-10-16T04:33:03.507Z,20.32
2018-10-16T04:35:31.808Z,17.75
2018-10-16T04:38:00.183Z,17.10
2018-10-16T04:40:28.471Z,17.20
2018-10-16T04:42:56.742Z,18.02
2018-10-16T04:45:25.014Z,15.30
2018-10-16T04:47:53.284Z,17.60
2018-10-16T04:50:21.586Z,21.42
2018-10-16T04:52:49.935Z,18.50
2018-10-16T04:55:18.320Z,17.27
2018-10-16T04:57:46.574Z,18.43
2018-10-16T05:00:14.847Z,18.23
2018-10-16T05:02:43.170Z,17.37
2018-10-16T05:05:15.911Z,18.55
2018-10-16T05:07:44.199Z,17.07
2018-10-16T05:10:12.508Z,18.87
2018-10-16T05:12:40.814Z,16.67
2018-10-16T05:15:11.521Z,17.55
2018-10-16T05:17:39.829Z,22.62
2018-10-16T05:20:08.151Z,21.10
2018-10-16T05:22:36.446Z,18.82
2018-10-16T05:25:05.426Z,16.95
2018-10-16T05:27:33.695Z,20.08
2018-10-16T05:30:01.975Z,23.18
2018-10-16T05:32:30.271Z,20.85
2018-10-16T05:34:58.555Z,17.10
2018-10-16T05:37:26.819Z,19.02
2018-10-16T05:39:55.155Z,20.43
2018-10-16T05:42:23.451Z,19.62
2018-10-16T05:44:51.714Z,23.62
2018-10-16T05:47:19.990Z,20.92
2018-10-16T05:49:48.268Z,20.45
2018-10-16T05:52:16.581Z,20.12
2018-10-16T05:54:44.894Z,18.98
2018-10-16T05:57:13.171Z,17.73
2018-10-16T05:59:41.474Z,21.10
2018-10-16T06:02:10.067Z,21.48
2018-10-16T06:04:38.361Z,17.70
2018-10-16T06:07:06.871Z,16.97
2018-10-16T06:09:35.455Z,20.05
2018-10-16T06:12:03.725Z,18.27
2018-10-16T06:14:32.022Z,20.08
2018-10-16T06:17:00.407Z,20.35
2018-10-16T06:19:28.674Z,21.40
2018-10-16T06:21:56.931Z,18.20
2018-10-16T06:24:25.289Z,21.90
2018-10-16T06:26:53.685Z,19.70
2018-10-16T06:29:21.966Z,18.87
2018-10-16T06:31:50.272Z,23.38
2018-10-16T06:34:18.586Z,21.68
2018-10-16T06:36:46.847Z,19.25
2018-10-16T06:39:16.922Z,21.90
2018-10-16T06:41:46.224Z,20.08
2018-10-16T06:44:14.464Z,19.10
2018-10-16T06:46:42.792Z,20.92
2018-10-16T06:49:11.063Z,24.77
2018-10-16T06:51:39.392Z,24.95
2018-10-16T06:54:07.631Z,22.48
2018-10-16T06:56:35.939Z,27.07
2018-10-16T06:59:04.212Z,24.23
2018-10-16T07:01:32.491Z,26.00
2018-10-16T07:04:00.748Z,26.87
2018-10-16T07:06:29.111Z,25.87
2018-10-16T07:08:57.357Z,23.73
2018-10-16T07:11:25.615Z,26.90
2018-10-16T07:13:53.902Z,21.37
2018-10-16T07:16:22.202Z,27.27
2018-10-16T07:18:50.486Z,25.72
2018-10-16T07:21:18.816Z,22.70
2018-10-16T07:23:47.096Z,26.12
2018-10-16T07:26:15.388Z,29.77
2018-10-16T07:28:43.687Z,30.15
2018-10-16T07:31:11.947Z,28.80
2018-10-16T07:33:40.266Z,24.23
2018-10-16T07:36:08.572Z,32.43
2018-10-16T07:38:36.846Z,29.73
2018-10-16T07:41:05.144Z,29.30
2018-10-16T07:43:33.383Z,30.10
2018-10-16T07:46:01.685Z,32.03
2018-10-16T07:48:30.077Z,28.07
2018-10-16T07:50:58.252Z,30.12
2018-10-16T07:53:26.527Z,29.02
2018-10-16T07:55:54.899Z,30.00
2018-10-16T07:58:23.219Z,31.12
2018-10-16T08:00:51.507Z,28.90
2018-10-16T08:03:19.841Z,26.12
2018-10-16T08:05:48.154Z,30.15
2018-10-16T08:08:16.451Z,29.30
2018-10-16T08:10:44.755Z,27.60
2018-10-16T08:13:13.055Z,23.57
2018-10-16T08:15:41.343Z,28.73
2018-10-16T08:18:09.637Z,23.02
2018-10-16T08:20:37.916Z,28.40
2018-10-16T08:23:06.199Z,27.58
2018-10-16T08:25:34.483Z,37.20
2018-10-16T08:28:02.891Z,34.33
2018-10-16T08:30:31.160Z,31.52
2018-10-16T08:32:59.459Z,29.65
2018-10-16T08:35:27.756Z,36.05
2018-10-16T08:40:05.414Z,28.33
2018-10-16T08:43:41.512Z,33.13
2018-10-16T08:46:21.244Z,30.70
2018-10-16T08:49:01.403Z,30.88
2018-10-16T08:51:33.771Z,33.20
2018-10-16T08:54:02.080Z,29.23
2018-10-16T08:56:30.595Z,25.82
2018-10-16T08:58:58.874Z,25.80
2018-10-16T09:01:27.527Z,32.00
2018-10-16T09:03:55.811Z,29.02
2018-10-16T09:06:24.185Z,24.75
2018-10-16T09:08:52.476Z,28.00
2018-10-16T09:11:20.771Z,22.05
2018-10-16T09:13:49.119Z,25.43
2018-10-16T09:16:17.410Z,28.92
2018-10-16T09:18:45.727Z,28.23
2018-10-16T09:21:14.006Z,28.57
2018-10-16T09:23:42.267Z,31.20
2018-10-16T09:26:10.527Z,25.70
2018-10-16T09:28:38.797Z,24.50
2018-10-16T09:31:07.133Z,24.10
2018-10-16T09:33:35.439Z,27.30
2018-10-16T09:36:03.762Z,24.18
2018-10-16T09:38:32.067Z,29.67
2018-10-16T09:41:00.387Z,26.45
2018-10-16T09:43:28.671Z,30.10
2018-10-16T09:45:56.963Z,28.73
2018-10-16T09:48:25.258Z,26.10
2018-10-16T09:50:53.642Z,31.93
2018-10-16T09:53:21.930Z,25.37
2018-10-16T09:55:50.264Z,31.10
2018-10-16T09:58:18.645Z,28.75
2018-10-16T10:00:52.445Z,27.10
2018-10-16T10:03:20.647Z,26.55
2018-10-16T10:05:48.914Z,26.15
2018-10-16T10:08:17.211Z,28.42
2018-10-16T10:10:45.556Z,26.65
2018-10-16T10:13:13.855Z,28.67
2018-10-16T10:15:42.339Z,25.55
2018-10-16T10:18:10.603Z,24.30
2018-10-16T10:20:38.902Z,21.42
2018-10-16T10:23:07.278Z,19.35
2018-10-16T10:25:35.543Z,23.83
2018-10-16T10:28:03.823Z,22.90
2018-10-16T10:30:32.211Z,20.37
2018-10-16T10:33:00.546Z,24.37
2018-10-16T10:35:28.954Z,16.52
2018-10-16T10:37:57.208Z,16.02
2018-10-16T10:40:25.559Z,16.93
2018-10-16T10:42:53.858Z,16.70
2018-10-16T10:45:22.979Z,20.80
2018-10-16T10:47:51.307Z,21.68
2018-10-16T10:50:19.738Z,17.65
2018-10-16T10:52:47.895Z,16.02
2018-10-16T10:55:16.159Z,20.00
2018-10-16T10:57:44.471Z,12.75
2018-10-16T11:00:13.893Z,20.23
2018-10-16T11:02:43.479Z,21.20
2018-10-16T11:05:12.168Z,15.60
2018-10-16T11:07:40.439Z,17.48
2018-10-16T11:10:10.886Z,13.53
2018-10-16T11:12:39.166Z,15.10
2018-10-16T11:15:07.767Z,12.37
2018-10-16T11:17:36.630Z,16.23
2018-10-16T11:20:05.579Z,12.33
2018-10-16T11:22:33.843Z,20.45
2018-10-16T11:25:02.143Z,14.35
2018-10-16T11:27:30.456Z,12.28
2018-10-16T11:29:58.772Z,9.75
2018-10-16T11:32:27.047Z,14.03
2018-10-16T11:34:55.327Z,13.30
2018-10-16T11:37:23.592Z,12.23
2018-10-16T11:39:51.892Z,10.58
2018-10-16T11:42:20.172Z,11.80
2018-10-16T11:44:48.479Z,13.85
2018-10-16T11:47:16.767Z,10.58
2018-10-16T11:49:45.028Z,10.15
2018-10-16T11:52:13.378Z,12.68
2018-10-16T11:54:41.600Z,11.80
2018-10-16T11:57:09.903Z,13.17
2018-10-16T11:59:38.182Z,16.90
2018-10-16T12:02:06.531Z,12.28
2018-10-16T12:04:34.779Z,14.53
2018-10-16T12:07:03.118Z,12.47
2018-10-16T12:09:31.387Z,14.78
2018-10-16T12:11:59.684Z,14.90
2018-10-16T12:14:28.081Z,11.50
2018-10-16T12:18:00.538Z,8.78
2018-10-16T12:20:33.915Z,13.25
2018-10-16T12:23:02.162Z,14.05
2018-10-16T12:25:30.435Z,10.32
2018-10-16T12:27:58.755Z,14.60
2018-10-16T12:30:27.040Z,12.10
2018-10-16T12:32:55.372Z,11.63
2018-10-16T12:35:23.621Z,13.13
2018-10-16T12:37:51.883Z,12.90
2018-10-16T12:40:20.162Z,13.83
2018-10-16T12:42:48.473Z,11.18
2018-10-16T12:45:16.731Z,13.20
2018-10-16T12:47:45.217Z,8.53
2018-10-16T12:50:13.535Z,13.00
2018-10-16T12:52:41.769Z,9.60
2018-10-16T12:55:10.239Z,9.40
2018-10-16T12:57:38.529Z,13.50
2018-10-16T13:00:07.286Z,9.27
2018-10-16T13:02:35.520Z,13.90
2018-10-16T13:05:03.998Z,8.20
2018-10-16T13:07:36.243Z,11.10
2018-10-16T13:10:06.518Z,9.07
2018-10-16T13:12:34.815Z,10.03
2018-10-16T13:15:03.158Z,11.33
2018-10-16T13:17:31.404Z,10.00
2018-10-16T13:19:59.761Z,13.58
2018-10-16T13:22:28.047Z,10.63
2018-10-16T13:24:56.323Z,12.37
2018-10-16T13:27:24.583Z,10.37
2018-10-16T13:29:52.933Z,9.15
2018-10-16T13:32:21.187Z,10.58
2018-10-16T13:34:49.519Z,10.15
2018-10-16T13:37:17.794Z,12.85
2018-10-16T13:39:46.211Z,9.10
2018-10-16T13:42:14.481Z,11.57
2018-10-16T13:44:42.785Z,8.13
2018-10-16T13:47:11.063Z,7.83
2018-10-16T13:49:39.335Z,7.80
2018-10-16T13:52:07.634Z,7.92
2018-10-16T13:54:35.883Z,8.35
2018-10-16T13:57:04.132Z,9.10
2018-10-16T13:59:32.403Z,15.88
2018-10-16T14:02:00.719Z,10.15
2018-10-16T14:04:29.021Z,10.93
2018-10-16T14:06:57.307Z,8.60
2018-10-16T14:09:25.555Z,7.73
2018-10-16T14:11:53.851Z,15.90
2018-10-16T14:14:22.139Z,9.73
2018-10-16T14:16:50.523Z,8.30
2018-10-16T14:19:18.772Z,11.20
2018-10-16T14:21:47.060Z,6.70
2018-10-16T14:24:15.408Z,10.70
2018-10-16T14:26:43.668Z,10.40
2018-10-16T14:29:11.919Z,7.70
2018-10-16T14:31:40.179Z,8.90
2018-10-16T14:34:08.460Z,9.05
2018-10-16T14:36:36.746Z,7.80
2018-10-16T14:39:08.042Z,12.90
2018-10-16T14:41:36.315Z,9.18
2018-10-16T14:44:04.954Z,8.10
2018-10-16T14:46:33.215Z,10.15
2018-10-16T14:49:08.344Z,11.22
2018-10-16T14:51:36.618Z,9.73
2018-10-16T14:54:04.929Z,6.72
2018-10-16T14:56:33.795Z,8.08
2018-10-16T14:59:02.066Z,9.90
2018-10-16T15:01:30.458Z,7.75
2018-10-16T15:03:58.781Z,12.85
2018-10-16T15:06:27.028Z,6.97
2018-10-16T15:08:55.320Z,7.95
2018-10-16T15:11:23.603Z,8.85
2018-10-16T15:13:52.065Z,7.33
2018-10-16T15:16:20.382Z,9.28
2018-10-16T15:18:48.639Z,9.63
2018-10-16T15:21:16.923Z,14.70
2018-10-16T15:23:45.219Z,9.53
2018-10-16T15:26:13.496Z,9.87
2018-10-16T15:28:41.779Z,8.68
2018-10-16T15:31:10.146Z,11.45
2018-10-16T15:33:38.438Z,11.18
2018-10-16T15:36:06.784Z,10.20
2018-10-16T15:38:35.080Z,8.38
2018-10-16T15:41:03.486Z,11.15
2018-10-16T15:43:31.758Z,8.55
2018-10-16T15:46:00.148Z,12.78
2018-10-16T15:48:28.443Z,8.38
2018-10-16T15:50:56.792Z,8.63
2018-10-16T15:53:25.077Z,10.05
2018-10-16T15:55:53.397Z,10.70
2018-10-16T15:58:21.668Z,11.70
2018-10-16T16:00:49.947Z,11.10
2018-10-16T16:03:18.239Z,10.05
2018-10-16T16:05:46.498Z,13.98
2018-10-16T16:08:14.837Z,17.20
2018-10-16T16:10:43.052Z,18.45
2018-10-16T16:13:11.821Z,15.60
2018-10-16T16:15:40.281Z,13.05
2018-10-16T16:18:08.703Z,26.50
2018-10-16T16:20:36.970Z,16.67
2018-10-16T16:23:05.328Z,15.72
2018-10-16T16:25:34.044Z,14.47
2018-10-16T16:28:02.641Z,14.38
2018-10-16T16:30:30.988Z,15.90
2018-10-16T16:32:59.304Z,12.25
2018-10-16T16:35:27.580Z,12.07
2018-10-16T16:37:55.943Z,15.98
2018-10-16T16:40:24.207Z,17.15
2018-10-16T16:42:52.470Z,14.33
2018-10-16T16:45:20.747Z,13.73
2018-10-16T16:47:49.055Z,18.07
2018-10-16T16:50:17.334Z,16.13
2018-10-16T16:52:45.617Z,17.07
2018-10-16T16:55:15.156Z,14.23
2018-10-16T16:57:43.800Z,24.10
2018-10-16T17:00:13.466Z,16.32
2018-10-16T17:02:43.023Z,23.05
2018-10-16T17:05:11.976Z,20.05
2018-10-16T17:07:40.781Z,15.95
2018-10-16T17:10:09.538Z,16.53
2018-10-16T17:12:38.335Z,14.98
2018-10-16T17:15:08.934Z,12.80
2018-10-16T17:17:37.334Z,13.00
2018-10-16T17:20:06.537Z,14.70
2018-10-16T17:22:35.022Z,11.30
2018-10-16T17:25:03.437Z,18.47
2018-10-16T17:27:31.621Z,19.00
2018-10-16T17:30:00.147Z,18.40
2018-10-16T17:32:28.412Z,11.83
2018-10-16T17:34:56.712Z,18.15
2018-10-16T17:37:25.043Z,15.38
2018-10-16T17:39:53.347Z,13.95
2018-10-16T17:42:21.595Z,12.73
2018-10-16T17:44:49.863Z,18.52
2018-10-16T17:47:18.163Z,19.10
2018-10-16T17:49:46.442Z,15.07
2018-10-16T17:52:14.720Z,16.57
2018-10-16T17:54:42.991Z,14.83
2018-10-16T17:57:11.354Z,17.43
2018-10-16T17:59:39.631Z,17.37
2018-10-16T18:02:07.880Z,16.77
2018-10-16T18:04:36.205Z,15.93
2018-10-16T18:07:04.631Z,17.47
2018-10-16T18:09:32.935Z,20.80
2018-10-16T18:12:01.195Z,18.60
2018-10-16T18:14:31.479Z,18.10
2018-10-16T18:16:59.735Z,15.97
2018-10-16T18:19:27.991Z,15.47
2018-10-16T18:21:56.294Z,23.90
2018-10-16T18:24:24.602Z,23.07
2018-10-16T18:26:52.928Z,20.97
2018-10-16T18:29:21.159Z,22.35
2018-10-16T18:31:49.443Z,17.67
2018-10-16T18:34:17.744Z,23.87
2018-10-16T18:36:46.027Z,18.17
2018-10-16T18:39:14.388Z,21.50
2018-10-16T18:41:42.623Z,20.15
2018-10-16T18:44:10.975Z,19.95
2018-10-16T18:46:39.513Z,19.33
2018-10-16T18:49:07.787Z,25.70
2018-10-16T18:51:36.074Z,26.90
2018-10-16T18:54:04.406Z,23.60
2018-10-16T18:56:32.656Z,22.17
2018-10-16T18:59:01.079Z,21.55
2018-10-16T19:01:29.378Z,26.65
2018-10-16T19:03:57.655Z,21.02
2018-10-16T19:06:25.906Z,23.38
2018-10-16T19:08:54.224Z,23.55
2018-10-16T19:11:22.527Z,21.27
2018-10-16T19:13:50.901Z,22.25
2018-10-16T19:16:19.139Z,23.95
2018-10-16T19:18:47.619Z,22.85
2018-10-16T19:21:16.059Z,23.92
2018-10-16T19:23:44.366Z,26.05
2018-10-16T19:26:12.639Z,26.23
2018-10-16T19:28:40.896Z,21.82
2018-10-16T19:31:09.178Z,21.97
2018-10-16T19:33:37.480Z,20.52
2018-10-16T19:36:06.207Z,24.40
2018-10-16T19:38:34.492Z,24.65
2018-10-16T19:41:02.767Z,24.72
2018-10-16T19:43:31.068Z,23.35
2018-10-16T19:45:59.579Z,21.75
2018-10-16T19:48:27.884Z,22.35
2018-10-16T19:50:56.214Z,23.20
2018-10-16T19:53:24.479Z,25.77
2018-10-16T19:55:52.762Z,23.50
2018-10-16T19:58:21.031Z,20.75
2018-10-16T20:00:49.376Z,23.67
2018-10-16T20:03:17.635Z,21.62
2018-10-16T20:05:45.948Z,25.48
2018-10-16T20:08:14.295Z,25.37
2018-10-16T20:11:10.084Z,29.23
2018-10-16T20:13:39.638Z,31.40
2018-10-16T20:16:07.913Z,27.62
2018-10-16T20:18:36.203Z,22.10
2018-10-16T20:21:04.707Z,20.65
2018-10-16T20:23:32.996Z,21.17
2018-10-16T20:26:01.276Z,23.22
2018-10-16T20:28:29.577Z,29.82
2018-10-16T20:30:57.879Z,28.07
2018-10-16T20:33:26.188Z,23.50
2018-10-16T20:35:54.518Z,25.75
2018-10-16T20:38:22.829Z,26.17
2018-10-16T20:40:51.128Z,25.00
2018-10-16T20:43:19.459Z,24.37
2018-10-16T20:45:47.760Z,22.43
2018-10-16T20:48:16.027Z,23.87
2018-10-16T20:50:44.291Z,26.60
2018-10-16T20:53:12.575Z,24.70
2018-10-16T20:55:41.000Z,25.67
2018-10-16T20:58:09.339Z,27.75
2018-10-16T21:00:38.379Z,24.55
2018-10-16T21:03:06.707Z,26.00
2018-10-16T21:05:35.054Z,24.60
2018-10-16T21:08:03.311Z,24.80
2018-10-16T21:10:31.593Z,27.20
2018-10-16T21:12:59.898Z,23.25
2018-10-16T21:15:28.174Z,28.62
2018-10-16T21:17:56.446Z,26.12
2018-10-16T21:20:24.702Z,26.00
2018-10-16T21:22:53.046Z,24.80
2018-10-16T21:25:21.294Z,23.12
2018-10-16T21:27:49.570Z,29.37
2018-10-16T21:30:17.838Z,24.27
2018-10-16T21:32:46.110Z,25.92
2018-10-16T21:35:14.423Z,28.92
2018-10-16T21:37:42.777Z,27.58
2018-10-16T21:40:11.074Z,27.17
2018-10-16T21:42:39.385Z,29.15
2018-10-16T21:45:07.854Z,23.85
2018-10-16T21:47:36.330Z,24.87
2018-10-16T21:50:04.654Z,28.80
2018-10-16T21:52:32.922Z,22.90
2018-10-16T21:55:01.233Z,25.00
2018-10-16T21:57:29.434Z,25.07
2018-10-16T21:59:57.730Z,26.73
2018-10-16T22:02:31.236Z,24.55
2018-10-16T22:04:59.530Z,24.55
2018-10-16T22:07:27.850Z,28.00
2018-10-16T22:09:56.126Z,26.15
2018-10-16T22:12:24.474Z,25.27
2018-10-16T22:14:52.686Z,27.70
2018-10-16T22:17:20.982Z,28.17
2018-10-16T22:19:49.259Z,25.88
2018-10-16T22:22:17.567Z,26.00
2018-10-16T22:24:45.827Z,23.83
2018-10-16T22:27:14.090Z,29.32
2018-10-16T22:29:42.458Z,26.27
2018-10-16T22:32:10.679Z,29.92
2018-10-16T22:34:39.119Z,26.25
2018-10-16T22:37:07.380Z,27.00
2018-10-16T22:39:35.658Z,26.93
2018-10-16T22:42:03.965Z,33.02
2018-10-16T22:44:32.251Z,28.47
2018-10-16T22:47:00.587Z,27.05
2018-10-16T22:49:28.833Z,31.25
2018-10-16T22:51:57.116Z,27.80
2018-10-16T22:54:25.441Z,25.80
2018-10-16T22:56:53.734Z,30.25
2018-10-16T22:59:22.059Z,26.10
2018-10-16T23:01:50.327Z,25.10
2018-10-16T23:04:18.597Z,27.02
2018-10-16T23:06:46.881Z,29.25
2018-10-16T23:09:15.148Z,27.10
2018-10-16T23:11:43.438Z,25.53
2018-10-16T23:14:11.695Z,25.20
2018-10-16T23:16:39.966Z,25.97
2018-10-16T23:19:08.303Z,23.90
2018-10-16T23:21:36.554Z,29.60
2018-10-16T23:24:05.139Z,31.23
2018-10-16T23:26:33.463Z,25.62
2018-10-16T23:29:01.782Z,27.27
2018-10-16T23:31:30.022Z,25.12
2018-10-16T23:33:58.269Z,26.57
2018-10-16T23:36:26.538Z,24.15
2018-10-16T23:38:54.826Z,24.20
2018-10-16T23:41:23.118Z,28.90
2018-10-16T23:43:51.396Z,25.67
2018-10-16T23:46:19.662Z,29.90
2018-10-16T23:48:47.961Z,25.60
2018-10-16T23:51:16.273Z,25.17
2018-10-16T23:53:44.562Z,26.45
2018-10-16T23:56:12.886Z,25.75
2018-10-16T23:58:41.174Z,26.50
